sensor_id;sensor_type;location;lat;lon;timestamp;temperature;humidity
44215;DHT22;29884;47.450;19.124;2022-08-19T00:01:21;25.80;90.20
44215;DHT22;29884;47.450;19.124;2022-08-19T00:03:47;25.80;90.60
44215;DHT22;29884;47.450;19.124;2022-08-19T00:06:14;25.70;90.30
44215;DHT22;29884;47.450;19.124;2022-08-19T00:08:40;25.70;90.20
44215;DHT22;29884;47.450;19.124;2022-08-19T00:11:06;25.70;90.40
44215;DHT22;29884;47.450;19.124;2022-08-19T00:13:33;25.70;90.40
44215;DHT22;29884;47.450;19.124;2022-08-19T00:15:58;25.70;90.20
44215;DHT22;29884;47.450;19.124;2022-08-19T00:18:25;25.80;90.20
44215;DHT22;29884;47.450;19.124;2022-08-19T00:20:51;25.80;90.40
44215;DHT22;29884;47.450;19.124;2022-08-19T00:23:17;25.70;90.50
44215;DHT22;29884;47.450;19.124;2022-08-19T00:25:42;25.70;90.70
44215;DHT22;29884;47.450;19.124;2022-08-19T00:28:09;25.60;91.10
44215;DHT22;29884;47.450;19.124;2022-08-19T00:30:35;25.50;91.20
44215;DHT22;29884;47.450;19.124;2022-08-19T00:33:00;25.50;91.20
44215;DHT22;29884;47.450;19.124;2022-08-19T00:35:26;25.50;91.80
44215;DHT22;29884;47.450;19.124;2022-08-19T00:37:53;25.40;91.80
44215;DHT22;29884;47.450;19.124;2022-08-19T00:40:19;25.40;92.40
44215;DHT22;29884;47.450;19.124;2022-08-19T00:42:45;25.40;92.50
44215;DHT22;29884;47.450;19.124;2022-08-19T00:45:16;25.30;92.70
44215;DHT22;29884;47.450;19.124;2022-08-19T00:47:43;25.30;93.50
44215;DHT22;29884;47.450;19.124;2022-08-19T00:50:11;25.20;93.50
44215;DHT22;29884;47.450;19.124;2022-08-19T00:52:41;25.20;94.40
44215;DHT22;29884;47.450;19.124;2022-08-19T00:55:12;25.10;93.90
44215;DHT22;29884;47.450;19.124;2022-08-19T00:57:41;25.10;94.90
44215;DHT22;29884;47.450;19.124;2022-08-19T01:00:13;25.00;95.60
44215;DHT22;29884;47.450;19.124;2022-08-19T01:02:40;25.00;96.20
44215;DHT22;29884;47.450;19.124;2022-08-19T01:05:10;24.90;96.10
44215;DHT22;29884;47.450;19.124;2022-08-19T01:07:38;24.90;95.90
44215;DHT22;29884;47.450;19.124;2022-08-19T01:10:08;24.80;95.90
44215;DHT22;29884;47.450;19.124;2022-08-19T01:12:35;24.80;96.50
44215;DHT22;29884;47.450;19.124;2022-08-19T01:15:02;24.80;96.90
44215;DHT22;29884;47.450;19.124;2022-08-19T01:17:28;24.80;96.60
44215;DHT22;29884;47.450;19.124;2022-08-19T01:19:54;24.80;97.10
44215;DHT22;29884;47.450;19.124;2022-08-19T01:24:45;24.80;97.80
44215;DHT22;29884;47.450;19.124;2022-08-19T01:27:11;24.70;97.90
44215;DHT22;29884;47.450;19.124;2022-08-19T01:29:41;24.60;97.80
44215;DHT22;29884;47.450;19.124;2022-08-19T01:32:09;24.60;98.20
44215;DHT22;29884;47.450;19.124;2022-08-19T01:34:37;24.60;97.80
44215;DHT22;29884;47.450;19.124;2022-08-19T01:37:10;24.70;98.00
44215;DHT22;29884;47.450;19.124;2022-08-19T01:39:38;24.60;98.00
44215;DHT22;29884;47.450;19.124;2022-08-19T01:42:05;24.60;98.30
44215;DHT22;29884;47.450;19.124;2022-08-19T01:44:32;24.60;98.10
44215;DHT22;29884;47.450;19.124;2022-08-19T01:46:58;24.70;98.20
44215;DHT22;29884;47.450;19.124;2022-08-19T01:49:25;24.70;98.10
44215;DHT22;29884;47.450;19.124;2022-08-19T01:51:54;24.70;98.30
44215;DHT22;29884;47.450;19.124;2022-08-19T01:54:21;24.60;98.60
44215;DHT22;29884;47.450;19.124;2022-08-19T01:56:47;24.60;98.80
44215;DHT22;29884;47.450;19.124;2022-08-19T01:59:18;24.60;98.80
44215;DHT22;29884;47.450;19.124;2022-08-19T02:01:44;24.60;99.00
44215;DHT22;29884;47.450;19.124;2022-08-19T02:04:10;24.60;98.80
44215;DHT22;29884;47.450;19.124;2022-08-19T02:06:36;24.60;98.80
44215;DHT22;29884;47.450;19.124;2022-08-19T02:09:04;24.60;98.70
44215;DHT22;29884;47.450;19.124;2022-08-19T02:11:32;24.60;98.60
44215;DHT22;29884;47.450;19.124;2022-08-19T02:14:00;24.60;98.90
44215;DHT22;29884;47.450;19.124;2022-08-19T02:16:28;24.60;98.80
44215;DHT22;29884;47.450;19.124;2022-08-19T02:18:54;24.60;98.80
44215;DHT22;29884;47.450;19.124;2022-08-19T02:21:21;24.50;99.00
44215;DHT22;29884;47.450;19.124;2022-08-19T02:23:48;24.50;99.20
44215;DHT22;29884;47.450;19.124;2022-08-19T02:26:15;24.50;99.30
44215;DHT22;29884;47.450;19.124;2022-08-19T02:28:42;24.50;99.30
44215;DHT22;29884;47.450;19.124;2022-08-19T02:31:16;24.50;99.50
44215;DHT22;29884;47.450;19.124;2022-08-19T02:33:43;24.50;99.60
44215;DHT22;29884;47.450;19.124;2022-08-19T02:36:10;24.40;99.80
44215;DHT22;29884;47.450;19.124;2022-08-19T02:38:36;24.30;99.90
44215;DHT22;29884;47.450;19.124;2022-08-19T02:41:24;24.30;99.90
44215;DHT22;29884;47.450;19.124;2022-08-19T02:43:50;24.20;99.90
44215;DHT22;29884;47.450;19.124;2022-08-19T02:46:19;24.20;99.90
44215;DHT22;29884;47.450;19.124;2022-08-19T02:48:51;24.20;99.90
44215;DHT22;29884;47.450;19.124;2022-08-19T02:51:20;24.10;99.90
44215;DHT22;29884;47.450;19.124;2022-08-19T02:53:46;24.10;99.90
44215;DHT22;29884;47.450;19.124;2022-08-19T02:56:12;24.10;99.90
44215;DHT22;29884;47.450;19.124;2022-08-19T02:58:38;24.00;99.90
44215;DHT22;29884;47.450;19.124;2022-08-19T03:01:04;23.90;99.90
44215;DHT22;29884;47.450;19.124;2022-08-19T03:03:31;24.00;99.90
44215;DHT22;29884;47.450;19.124;2022-08-19T03:06:12;23.90;99.90
44215;DHT22;29884;47.450;19.124;2022-08-19T03:08:40;23.90;99.90
44215;DHT22;29884;47.450;19.124;2022-08-19T03:11:06;23.90;99.90
44215;DHT22;29884;47.450;19.124;2022-08-19T03:13:37;23.90;99.90
44215;DHT22;29884;47.450;19.124;2022-08-19T03:16:04;23.90;99.90
44215;DHT22;29884;47.450;19.124;2022-08-19T03:18:31;23.90;99.90
44215;DHT22;29884;47.450;19.124;2022-08-19T03:20:56;23.90;99.90
44215;DHT22;29884;47.450;19.124;2022-08-19T03:23:23;24.00;99.90
44215;DHT22;29884;47.450;19.124;2022-08-19T03:25:50;24.00;99.90
44215;DHT22;29884;47.450;19.124;2022-08-19T03:28:17;24.00;99.90
44215;DHT22;29884;47.450;19.124;2022-08-19T03:30:57;23.90;99.90
44215;DHT22;29884;47.450;19.124;2022-08-19T03:33:24;23.90;99.90
44215;DHT22;29884;47.450;19.124;2022-08-19T03:38:31;23.90;99.90
44215;DHT22;29884;47.450;19.124;2022-08-19T03:40:58;23.90;99.90
44215;DHT22;29884;47.450;19.124;2022-08-19T03:43:27;23.90;99.90
44215;DHT22;29884;47.450;19.124;2022-08-19T03:46:01;23.90;99.90
44215;DHT22;29884;47.450;19.124;2022-08-19T03:48:29;23.80;99.90
44215;DHT22;29884;47.450;19.124;2022-08-19T03:50:56;23.80;99.90
44215;DHT22;29884;47.450;19.124;2022-08-19T03:53:23;23.90;99.90
44215;DHT22;29884;47.450;19.124;2022-08-19T03:55:48;23.90;99.90
44215;DHT22;29884;47.450;19.124;2022-08-19T03:58:14;23.90;99.90
44215;DHT22;29884;47.450;19.124;2022-08-19T04:00:42;23.80;99.90
44215;DHT22;29884;47.450;19.124;2022-08-19T04:03:08;23.80;99.90
44215;DHT22;29884;47.450;19.124;2022-08-19T04:05:34;23.80;99.90
44215;DHT22;29884;47.450;19.124;2022-08-19T04:07:59;23.80;99.90
44215;DHT22;29884;47.450;19.124;2022-08-19T04:10:27;23.80;99.90
44215;DHT22;29884;47.450;19.124;2022-08-19T04:12:53;23.80;99.90
44215;DHT22;29884;47.450;19.124;2022-08-19T04:15:19;23.70;99.90
44215;DHT22;29884;47.450;19.124;2022-08-19T04:17:46;23.70;99.90
44215;DHT22;29884;47.450;19.124;2022-08-19T04:20:11;23.70;99.90
44215;DHT22;29884;47.450;19.124;2022-08-19T04:22:37;23.70;99.90
44215;DHT22;29884;47.450;19.124;2022-08-19T04:25:03;23.70;99.90
44215;DHT22;29884;47.450;19.124;2022-08-19T04:27:29;23.70;99.90
44215;DHT22;29884;47.450;19.124;2022-08-19T04:29:54;23.70;99.90
44215;DHT22;29884;47.450;19.124;2022-08-19T04:32:21;23.80;99.90
44215;DHT22;29884;47.450;19.124;2022-08-19T04:34:47;23.80;99.90
44215;DHT22;29884;47.450;19.124;2022-08-19T04:37:12;23.80;99.90
44215;DHT22;29884;47.450;19.124;2022-08-19T04:39:39;23.80;99.90
44215;DHT22;29884;47.450;19.124;2022-08-19T04:42:23;23.90;99.90
44215;DHT22;29884;47.450;19.124;2022-08-19T04:45:11;23.90;99.90
44215;DHT22;29884;47.450;19.124;2022-08-19T04:47:38;23.90;99.90
44215;DHT22;29884;47.450;19.124;2022-08-19T04:50:05;24.00;99.90
44215;DHT22;29884;47.450;19.124;2022-08-19T04:52:31;24.00;99.90
44215;DHT22;29884;47.450;19.124;2022-08-19T04:54:57;24.00;99.90
44215;DHT22;29884;47.450;19.124;2022-08-19T04:57:23;24.10;99.90
44215;DHT22;29884;47.450;19.124;2022-08-19T04:59:54;24.10;99.90
44215;DHT22;29884;47.450;19.124;2022-08-19T05:02:20;24.10;99.90
44215;DHT22;29884;47.450;19.124;2022-08-19T05:04:50;24.10;99.90
44215;DHT22;29884;47.450;19.124;2022-08-19T05:07:15;24.10;99.90
44215;DHT22;29884;47.450;19.124;2022-08-19T05:09:41;24.20;99.90
44215;DHT22;29884;47.450;19.124;2022-08-19T05:12:08;24.20;99.90
44215;DHT22;29884;47.450;19.124;2022-08-19T05:14:34;24.30;99.90
44215;DHT22;29884;47.450;19.124;2022-08-19T05:17:02;24.30;99.90
44215;DHT22;29884;47.450;19.124;2022-08-19T05:19:28;24.30;99.90
44215;DHT22;29884;47.450;19.124;2022-08-19T05:22:12;24.40;99.90
44215;DHT22;29884;47.450;19.124;2022-08-19T05:24:56;24.40;99.90
44215;DHT22;29884;47.450;19.124;2022-08-19T05:27:22;24.50;99.90
44215;DHT22;29884;47.450;19.124;2022-08-19T05:29:48;24.60;99.90
44215;DHT22;29884;47.450;19.124;2022-08-19T05:32:14;24.60;99.90
44215;DHT22;29884;47.450;19.124;2022-08-19T05:34:39;24.70;99.90
44215;DHT22;29884;47.450;19.124;2022-08-19T05:37:06;24.80;99.90
44215;DHT22;29884;47.450;19.124;2022-08-19T05:39:35;24.80;99.90
44215;DHT22;29884;47.450;19.124;2022-08-19T05:42:04;24.90;99.90
44215;DHT22;29884;47.450;19.124;2022-08-19T05:44:33;24.90;99.90
44215;DHT22;29884;47.450;19.124;2022-08-19T05:47:01;25.00;99.90
44215;DHT22;29884;47.450;19.124;2022-08-19T05:49:28;25.10;99.90
44215;DHT22;29884;47.450;19.124;2022-08-19T05:51:55;25.20;99.90
44215;DHT22;29884;47.450;19.124;2022-08-19T05:54:22;25.20;99.90
44215;DHT22;29884;47.450;19.124;2022-08-19T05:56:49;25.30;99.90
44215;DHT22;29884;47.450;19.124;2022-08-19T05:59:16;25.40;99.90
44215;DHT22;29884;47.450;19.124;2022-08-19T06:01:45;25.50;99.90
44215;DHT22;29884;47.450;19.124;2022-08-19T06:04:12;25.50;99.90
44215;DHT22;29884;47.450;19.124;2022-08-19T06:06:44;25.60;99.90
44215;DHT22;29884;47.450;19.124;2022-08-19T06:09:10;25.60;99.90
44215;DHT22;29884;47.450;19.124;2022-08-19T06:14:05;25.90;99.90
44215;DHT22;29884;47.450;19.124;2022-08-19T06:16:40;26.00;99.90
44215;DHT22;29884;47.450;19.124;2022-08-19T06:19:09;26.10;99.90
44215;DHT22;29884;47.450;19.124;2022-08-19T06:21:36;26.20;99.50
44215;DHT22;29884;47.450;19.124;2022-08-19T06:24:05;26.20;99.20
44215;DHT22;29884;47.450;19.124;2022-08-19T06:26:32;26.30;98.60
44215;DHT22;29884;47.450;19.124;2022-08-19T06:28:59;26.50;97.70
44215;DHT22;29884;47.450;19.124;2022-08-19T06:31:27;26.60;97.20
44215;DHT22;29884;47.450;19.124;2022-08-19T06:33:53;26.80;96.80
44215;DHT22;29884;47.450;19.124;2022-08-19T06:36:33;27.00;95.50
44215;DHT22;29884;47.450;19.124;2022-08-19T06:39:04;27.20;95.00
44215;DHT22;29884;47.450;19.124;2022-08-19T06:41:32;27.30;95.00
44215;DHT22;29884;47.450;19.124;2022-08-19T06:44:03;27.30;93.40
44215;DHT22;29884;47.450;19.124;2022-08-19T06:46:29;27.30;93.80
44215;DHT22;29884;47.450;19.124;2022-08-19T06:48:56;27.50;93.10
44215;DHT22;29884;47.450;19.124;2022-08-19T06:51:22;27.50;93.20
44215;DHT22;29884;47.450;19.124;2022-08-19T06:53:51;27.60;92.80
44215;DHT22;29884;47.450;19.124;2022-08-19T06:56:20;27.80;92.90
44215;DHT22;29884;47.450;19.124;2022-08-19T06:58:47;27.90;92.40
44215;DHT22;29884;47.450;19.124;2022-08-19T07:01:16;28.10;91.50
44215;DHT22;29884;47.450;19.124;2022-08-19T07:03:41;28.50;90.60
44215;DHT22;29884;47.450;19.124;2022-08-19T07:06:10;28.60;90.30
44215;DHT22;29884;47.450;19.124;2022-08-19T07:08:37;28.60;90.30
44215;DHT22;29884;47.450;19.124;2022-08-19T07:11:08;28.70;87.30
44215;DHT22;29884;47.450;19.124;2022-08-19T07:13:35;28.60;88.00
44215;DHT22;29884;47.450;19.124;2022-08-19T07:16:10;28.50;89.60
44215;DHT22;29884;47.450;19.124;2022-08-19T07:18:37;28.80;88.30
44215;DHT22;29884;47.450;19.124;2022-08-19T07:21:10;29.10;86.70
44215;DHT22;29884;47.450;19.124;2022-08-19T07:23:36;29.30;85.30
44215;DHT22;29884;47.450;19.124;2022-08-19T07:26:29;29.40;83.10
44215;DHT22;29884;47.450;19.124;2022-08-19T07:28:56;29.50;82.70
44215;DHT22;29884;47.450;19.124;2022-08-19T07:31:25;29.70;81.50
44215;DHT22;29884;47.450;19.124;2022-08-19T07:33:52;29.60;81.10
44215;DHT22;29884;47.450;19.124;2022-08-19T07:36:20;29.80;79.70
44215;DHT22;29884;47.450;19.124;2022-08-19T07:38:48;29.90;78.90
44215;DHT22;29884;47.450;19.124;2022-08-19T07:41:18;30.10;78.60
44215;DHT22;29884;47.450;19.124;2022-08-19T07:43:45;30.20;77.60
44215;DHT22;29884;47.450;19.124;2022-08-19T07:46:11;30.40;77.70
44215;DHT22;29884;47.450;19.124;2022-08-19T07:48:40;30.50;76.00
44215;DHT22;29884;47.450;19.124;2022-08-19T07:51:07;30.60;75.00
44215;DHT22;29884;47.450;19.124;2022-08-19T07:53:35;30.50;75.40
44215;DHT22;29884;47.450;19.124;2022-08-19T07:56:02;30.50;76.10
44215;DHT22;29884;47.450;19.124;2022-08-19T07:58:33;30.60;75.20
44215;DHT22;29884;47.450;19.124;2022-08-19T08:01:00;30.60;76.30
44215;DHT22;29884;47.450;19.124;2022-08-19T08:03:27;30.90;76.10
44215;DHT22;29884;47.450;19.124;2022-08-19T08:06:13;31.10;72.70
44215;DHT22;29884;47.450;19.124;2022-08-19T08:08:58;31.30;73.00
44215;DHT22;29884;47.450;19.124;2022-08-19T08:11:45;31.50;72.50
44215;DHT22;29884;47.450;19.124;2022-08-19T08:16:51;31.50;69.40
44215;DHT22;29884;47.450;19.124;2022-08-19T08:19:19;31.60;69.50
44215;DHT22;29884;47.450;19.124;2022-08-19T08:21:47;31.90;71.20
44215;DHT22;29884;47.450;19.124;2022-08-19T08:24:13;31.90;66.70
44215;DHT22;29884;47.450;19.124;2022-08-19T08:26:39;31.80;67.10
44215;DHT22;29884;47.450;19.124;2022-08-19T08:29:06;31.80;68.60
44215;DHT22;29884;47.450;19.124;2022-08-19T08:31:35;31.70;67.90
44215;DHT22;29884;47.450;19.124;2022-08-19T08:34:01;31.70;69.30
44215;DHT22;29884;47.450;19.124;2022-08-19T08:36:27;31.90;67.10
44215;DHT22;29884;47.450;19.124;2022-08-19T08:38:53;32.10;66.40
44215;DHT22;29884;47.450;19.124;2022-08-19T08:44:50;32.40;65.30
44215;DHT22;29884;47.450;19.124;2022-08-19T08:47:19;32.50;65.40
44215;DHT22;29884;47.450;19.124;2022-08-19T08:49:56;32.70;64.70
44215;DHT22;29884;47.450;19.124;2022-08-19T08:52:33;32.80;64.00
44215;DHT22;29884;47.450;19.124;2022-08-19T08:55:09;32.70;64.00
44215;DHT22;29884;47.450;19.124;2022-08-19T08:57:48;32.70;64.40
44215;DHT22;29884;47.450;19.124;2022-08-19T09:00:31;32.70;63.90
44215;DHT22;29884;47.450;19.124;2022-08-19T09:02:58;33.10;63.90
44215;DHT22;29884;47.450;19.124;2022-08-19T09:08:08;33.30;62.10
44215;DHT22;29884;47.450;19.124;2022-08-19T09:16:10;33.50;61.50
44215;DHT22;29884;47.450;19.124;2022-08-19T09:19:05;33.70;60.60
44215;DHT22;29884;47.450;19.124;2022-08-19T09:21:31;33.80;59.10
44215;DHT22;29884;47.450;19.124;2022-08-19T09:23:57;33.80;58.80
44215;DHT22;29884;47.450;19.124;2022-08-19T09:26:24;34.00;59.00
44215;DHT22;29884;47.450;19.124;2022-08-19T09:28:51;34.10;58.70
44215;DHT22;29884;47.450;19.124;2022-08-19T09:31:23;34.10;56.90
44215;DHT22;29884;47.450;19.124;2022-08-19T09:33:51;34.10;57.40
44215;DHT22;29884;47.450;19.124;2022-08-19T09:36:19;34.20;57.30
44215;DHT22;29884;47.450;19.124;2022-08-19T09:38:46;34.30;56.50
44215;DHT22;29884;47.450;19.124;2022-08-19T09:41:15;34.50;56.20
44215;DHT22;29884;47.450;19.124;2022-08-19T09:43:43;34.50;55.30
44215;DHT22;29884;47.450;19.124;2022-08-19T09:46:09;34.70;55.10
44215;DHT22;29884;47.450;19.124;2022-08-19T09:48:36;34.70;55.00
44215;DHT22;29884;47.450;19.124;2022-08-19T09:51:13;34.90;54.90
44215;DHT22;29884;47.450;19.124;2022-08-19T09:53:44;34.80;54.50
44215;DHT22;29884;47.450;19.124;2022-08-19T09:56:10;34.80;54.40
44215;DHT22;29884;47.450;19.124;2022-08-19T09:58:37;34.90;54.50
44215;DHT22;29884;47.450;19.124;2022-08-19T10:01:04;35.00;54.10
44215;DHT22;29884;47.450;19.124;2022-08-19T10:03:30;35.00;53.80
44215;DHT22;29884;47.450;19.124;2022-08-19T10:05:59;35.30;53.40
44215;DHT22;29884;47.450;19.124;2022-08-19T10:08:29;35.40;53.70
44215;DHT22;29884;47.450;19.124;2022-08-19T10:10:56;35.20;53.30
44215;DHT22;29884;47.450;19.124;2022-08-19T10:13:24;35.40;53.50
44215;DHT22;29884;47.450;19.124;2022-08-19T10:15:52;35.40;52.60
44215;DHT22;29884;47.450;19.124;2022-08-19T10:18:20;35.20;53.10
44215;DHT22;29884;47.450;19.124;2022-08-19T10:20:50;35.30;52.70
44215;DHT22;29884;47.450;19.124;2022-08-19T10:23:16;35.40;52.80
44215;DHT22;29884;47.450;19.124;2022-08-19T10:25:43;35.80;52.30
44215;DHT22;29884;47.450;19.124;2022-08-19T10:28:09;35.90;51.70
44215;DHT22;29884;47.450;19.124;2022-08-19T10:30:38;36.10;51.40
44215;DHT22;29884;47.450;19.124;2022-08-19T10:33:05;35.90;51.20
44215;DHT22;29884;47.450;19.124;2022-08-19T10:35:31;35.90;51.70
44215;DHT22;29884;47.450;19.124;2022-08-19T10:37:56;36.20;51.60
44215;DHT22;29884;47.450;19.124;2022-08-19T10:40:27;36.30;50.90
44215;DHT22;29884;47.450;19.124;2022-08-19T10:42:54;36.50;50.50
44215;DHT22;29884;47.450;19.124;2022-08-19T10:45:21;36.60;49.30
44215;DHT22;29884;47.450;19.124;2022-08-19T10:47:54;36.60;49.20
44215;DHT22;29884;47.450;19.124;2022-08-19T10:50:21;36.80;48.40
44215;DHT22;29884;47.450;19.124;2022-08-19T10:53:07;36.60;48.40
44215;DHT22;29884;47.450;19.124;2022-08-19T10:55:34;36.60;48.70
44215;DHT22;29884;47.450;19.124;2022-08-19T10:58:22;36.80;48.50
44215;DHT22;29884;47.450;19.124;2022-08-19T11:00:54;37.10;48.30
44215;DHT22;29884;47.450;19.124;2022-08-19T11:03:23;37.00;48.20
44215;DHT22;29884;47.450;19.124;2022-08-19T11:06:00;37.20;49.30
44215;DHT22;29884;47.450;19.124;2022-08-19T11:08:26;37.30;48.00
44215;DHT22;29884;47.450;19.124;2022-08-19T11:10:54;37.30;47.60
44215;DHT22;29884;47.450;19.124;2022-08-19T11:13:22;37.00;47.90
44215;DHT22;29884;47.450;19.124;2022-08-19T11:15:59;37.10;47.10
44215;DHT22;29884;47.450;19.124;2022-08-19T11:18:25;37.10;47.20
44215;DHT22;29884;47.450;19.124;2022-08-19T11:20:51;37.30;46.80
44215;DHT22;29884;47.450;19.124;2022-08-19T11:23:18;37.30;46.50
44215;DHT22;29884;47.450;19.124;2022-08-19T11:25:44;37.20;46.60
44215;DHT22;29884;47.450;19.124;2022-08-19T11:28:11;37.20;46.40
44215;DHT22;29884;47.450;19.124;2022-08-19T11:30:38;37.40;46.50
44215;DHT22;29884;47.450;19.124;2022-08-19T11:33:04;37.30;46.20
44215;DHT22;29884;47.450;19.124;2022-08-19T11:35:30;37.40;46.30
44215;DHT22;29884;47.450;19.124;2022-08-19T11:37:56;37.60;46.00
44215;DHT22;29884;47.450;19.124;2022-08-19T11:40:26;37.40;45.50
44215;DHT22;29884;47.450;19.124;2022-08-19T11:42:52;37.40;45.50
44215;DHT22;29884;47.450;19.124;2022-08-19T11:45:26;37.50;45.70
44215;DHT22;29884;47.450;19.124;2022-08-19T11:47:52;37.50;45.40
44215;DHT22;29884;47.450;19.124;2022-08-19T11:50:19;37.60;45.00
44215;DHT22;29884;47.450;19.124;2022-08-19T11:52:45;37.80;45.60
44215;DHT22;29884;47.450;19.124;2022-08-19T11:55:13;37.90;44.50
44215;DHT22;29884;47.450;19.124;2022-08-19T11:57:39;37.80;44.80
44215;DHT22;29884;47.450;19.124;2022-08-19T12:00:07;38.10;44.70
44215;DHT22;29884;47.450;19.124;2022-08-19T12:02:33;38.00;44.00
44215;DHT22;29884;47.450;19.124;2022-08-19T12:04:59;37.80;44.00
44215;DHT22;29884;47.450;19.124;2022-08-19T12:07:27;37.80;43.60
44215;DHT22;29884;47.450;19.124;2022-08-19T12:09:54;37.80;45.40
44215;DHT22;29884;47.450;19.124;2022-08-19T12:12:20;37.80;44.20
44215;DHT22;29884;47.450;19.124;2022-08-19T12:14:46;37.80;44.70
44215;DHT22;29884;47.450;19.124;2022-08-19T12:17:12;37.50;44.10
44215;DHT22;29884;47.450;19.124;2022-08-19T12:19:38;37.30;44.10
44215;DHT22;29884;47.450;19.124;2022-08-19T12:22:05;37.00;44.50
44215;DHT22;29884;47.450;19.124;2022-08-19T12:24:32;37.00;45.00
44215;DHT22;29884;47.450;19.124;2022-08-19T12:26:58;37.20;44.80
44215;DHT22;29884;47.450;19.124;2022-08-19T12:29:27;37.00;45.00
44215;DHT22;29884;47.450;19.124;2022-08-19T12:31:55;36.90;44.70
44215;DHT22;29884;47.450;19.124;2022-08-19T12:34:31;36.60;45.10
44215;DHT22;29884;47.450;19.124;2022-08-19T12:37:00;36.40;45.60
44215;DHT22;29884;47.450;19.124;2022-08-19T12:39:26;36.20;45.70
44215;DHT22;29884;47.450;19.124;2022-08-19T12:41:52;36.20;45.70
44215;DHT22;29884;47.450;19.124;2022-08-19T12:44:18;36.30;45.40
44215;DHT22;29884;47.450;19.124;2022-08-19T12:46:44;36.40;45.50
44215;DHT22;29884;47.450;19.124;2022-08-19T12:49:10;36.80;45.80
44215;DHT22;29884;47.450;19.124;2022-08-19T12:51:36;36.80;45.10
44215;DHT22;29884;47.450;19.124;2022-08-19T12:54:02;37.00;45.00
44215;DHT22;29884;47.450;19.124;2022-08-19T12:56:27;37.00;44.80
44215;DHT22;29884;47.450;19.124;2022-08-19T12:58:53;37.00;44.50
44215;DHT22;29884;47.450;19.124;2022-08-19T13:01:20;37.00;44.00
44215;DHT22;29884;47.450;19.124;2022-08-19T13:03:46;37.20;44.50
44215;DHT22;29884;47.450;19.124;2022-08-19T13:06:12;37.50;44.30
44215;DHT22;29884;47.450;19.124;2022-08-19T13:08:38;37.50;44.20
44215;DHT22;29884;47.450;19.124;2022-08-19T13:11:22;37.40;44.00
44215;DHT22;29884;47.450;19.124;2022-08-19T13:13:51;37.40;43.60
44215;DHT22;29884;47.450;19.124;2022-08-19T13:16:18;37.20;43.50
44215;DHT22;29884;47.450;19.124;2022-08-19T13:18:46;37.50;43.70
44215;DHT22;29884;47.450;19.124;2022-08-19T13:21:19;37.60;43.50
44215;DHT22;29884;47.450;19.124;2022-08-19T13:23:48;37.70;43.40
44215;DHT22;29884;47.450;19.124;2022-08-19T13:26:15;37.70;42.40
44215;DHT22;29884;47.450;19.124;2022-08-19T13:28:42;37.80;43.00
44215;DHT22;29884;47.450;19.124;2022-08-19T13:31:28;37.90;43.00
44215;DHT22;29884;47.450;19.124;2022-08-19T13:34:13;37.70;43.10
44215;DHT22;29884;47.450;19.124;2022-08-19T13:36:39;37.40;43.70
44215;DHT22;29884;47.450;19.124;2022-08-19T13:39:07;37.40;43.20
44215;DHT22;29884;47.450;19.124;2022-08-19T13:41:34;37.70;43.20
44215;DHT22;29884;47.450;19.124;2022-08-19T13:44:00;37.70;43.00
44215;DHT22;29884;47.450;19.124;2022-08-19T13:46:27;37.70;43.10
44215;DHT22;29884;47.450;19.124;2022-08-19T13:48:55;37.40;43.40
44215;DHT22;29884;47.450;19.124;2022-08-19T13:51:21;37.00;43.30
44215;DHT22;29884;47.450;19.124;2022-08-19T13:53:47;36.90;44.30
44215;DHT22;29884;47.450;19.124;2022-08-19T13:56:15;36.60;43.80
44215;DHT22;29884;47.450;19.124;2022-08-19T13:58:41;36.60;44.80
44215;DHT22;29884;47.450;19.124;2022-08-19T14:01:08;36.40;47.10
44215;DHT22;29884;47.450;19.124;2022-08-19T14:03:34;36.40;47.60
44215;DHT22;29884;47.450;19.124;2022-08-19T14:06:00;36.20;48.50
44215;DHT22;29884;47.450;19.124;2022-08-19T14:08:27;36.10;49.70
44215;DHT22;29884;47.450;19.124;2022-08-19T14:10:54;35.60;51.30
44215;DHT22;29884;47.450;19.124;2022-08-19T14:13:21;35.00;52.90
44215;DHT22;29884;47.450;19.124;2022-08-19T14:15:48;34.50;53.80
44215;DHT22;29884;47.450;19.124;2022-08-19T14:18:16;34.10;55.10
44215;DHT22;29884;47.450;19.124;2022-08-19T14:20:41;33.90;55.70
44215;DHT22;29884;47.450;19.124;2022-08-19T14:23:07;33.70;56.60
44215;DHT22;29884;47.450;19.124;2022-08-19T14:25:33;33.80;56.20
44215;DHT22;29884;47.450;19.124;2022-08-19T14:28:00;33.80;55.70
44215;DHT22;29884;47.450;19.124;2022-08-19T14:30:29;33.80;56.00
44215;DHT22;29884;47.450;19.124;2022-08-19T14:32:56;33.80;56.10
44215;DHT22;29884;47.450;19.124;2022-08-19T14:35:24;33.80;56.10
44215;DHT22;29884;47.450;19.124;2022-08-19T14:37:51;33.90;56.20
44215;DHT22;29884;47.450;19.124;2022-08-19T14:40:22;33.50;56.60
44215;DHT22;29884;47.450;19.124;2022-08-19T14:42:52;33.30;57.20
44215;DHT22;29884;47.450;19.124;2022-08-19T14:45:18;33.20;57.50
44215;DHT22;29884;47.450;19.124;2022-08-19T14:47:44;33.10;57.20
44215;DHT22;29884;47.450;19.124;2022-08-19T14:50:11;33.00;57.40
44215;DHT22;29884;47.450;19.124;2022-08-19T14:52:37;32.70;57.30
44215;DHT22;29884;47.450;19.124;2022-08-19T14:55:04;32.60;57.50
44215;DHT22;29884;47.450;19.124;2022-08-19T14:57:30;32.40;56.80
44215;DHT22;29884;47.450;19.124;2022-08-19T14:59:55;32.20;57.10
44215;DHT22;29884;47.450;19.124;2022-08-19T15:02:22;32.10;57.20
44215;DHT22;29884;47.450;19.124;2022-08-19T15:04:48;32.10;57.30
44215;DHT22;29884;47.450;19.124;2022-08-19T15:07:16;31.80;56.00
44215;DHT22;29884;47.450;19.124;2022-08-19T15:09:42;31.90;55.30
44215;DHT22;29884;47.450;19.124;2022-08-19T15:12:07;31.80;54.90
44215;DHT22;29884;47.450;19.124;2022-08-19T15:14:36;31.80;53.80
44215;DHT22;29884;47.450;19.124;2022-08-19T15:17:04;31.70;53.20
44215;DHT22;29884;47.450;19.124;2022-08-19T15:19:31;31.70;53.40
44215;DHT22;29884;47.450;19.124;2022-08-19T15:21:58;31.70;52.50
44215;DHT22;29884;47.450;19.124;2022-08-19T15:24:24;31.60;52.30
44215;DHT22;29884;47.450;19.124;2022-08-19T15:26:52;31.60;52.10
44215;DHT22;29884;47.450;19.124;2022-08-19T15:29:18;31.60;52.10
44215;DHT22;29884;47.450;19.124;2022-08-19T15:31:44;31.60;52.30
44215;DHT22;29884;47.450;19.124;2022-08-19T15:34:10;31.60;51.70
44215;DHT22;29884;47.450;19.124;2022-08-19T15:36:37;31.50;51.70
44215;DHT22;29884;47.450;19.124;2022-08-19T15:39:04;31.50;51.80
44215;DHT22;29884;47.450;19.124;2022-08-19T15:41:30;31.40;52.10
44215;DHT22;29884;47.450;19.124;2022-08-19T15:44:05;31.40;52.10